createdAt,value
2022-12-20T00:01:35.094Z,20.23
2022-12-20T00:04:05.590Z,16.52
2022-12-20T00:06:36.172Z,19.05
2022-12-20T00:09:07.903Z,19.95
2022-12-20T00:11:38.120Z,16.05
2022-12-20T00:14:05.113Z,19.20
2022-12-20T00:16:31.983Z,15.18
2022-12-20T00:19:03.524Z,18.40
2022-12-20T00:21:33.901Z,18.65
2022-12-20T00:24:01.939Z,17.38
2022-12-20T00:26:33.395Z,17.55
2022-12-20T00:29:01.514Z,20.10
2022-12-20T00:31:30.719Z,18.58
2022-12-20T00:34:00.519Z,17.85
2022-12-20T00:36:31.956Z,17.80
2022-12-20T00:39:01.547Z,18.10
2022-12-20T00:41:34.250Z,17.10
2022-12-20T00:44:03.248Z,17.58
2022-12-20T00:46:31.955Z,19.13
2022-12-20T00:48:59.091Z,17.00
2022-12-20T00:51:30.074Z,18.40
2022-12-20T00:53:57.054Z,16.38
2022-12-20T00:56:25.973Z,19.77
2022-12-20T00:58:54.232Z,20.08
2022-12-20T01:01:28.315Z,20.77
2022-12-20T01:03:55.641Z,18.92
2022-12-20T01:06:25.348Z,17.27
2022-12-20T01:08:54.807Z,18.80
2022-12-20T01:11:36.688Z,20.60
2022-12-20T01:14:15.619Z,17.33
2022-12-20T01:16:47.203Z,19.65
2022-12-20T01:19:18.733Z,19.85
2022-12-20T01:21:45.984Z,20.45
2022-12-20T01:24:20.034Z,20.58
2022-12-20T01:26:48.368Z,17.80
2022-12-20T01:29:15.939Z,19.55
2022-12-20T01:31:43.086Z,19.52
2022-12-20T01:34:11.005Z,17.65
2022-12-20T01:36:39.155Z,17.70
2022-12-20T01:39:14.436Z,21.13
2022-12-20T01:41:45.617Z,17.88
2022-12-20T01:44:18.639Z,18.45
2022-12-20T01:46:49.247Z,15.95
2022-12-20T01:49:38.078Z,17.13
2022-12-20T01:52:13.652Z,18.42
2022-12-20T01:54:55.050Z,19.20
2022-12-20T01:57:36.621Z,20.33
2022-12-20T02:00:09.176Z,18.13
2022-12-20T02:02:37.031Z,17.50
2022-12-20T02:05:05.175Z,19.15
2022-12-20T02:07:35.999Z,19.65
2022-12-20T02:10:07.437Z,20.02
2022-12-20T02:12:44.165Z,18.83
2022-12-20T02:15:55.279Z,18.25
2022-12-20T02:18:36.837Z,19.17
2022-12-20T02:21:18.538Z,17.98
2022-12-20T02:24:54.115Z,20.55
2022-12-20T02:28:04.965Z,18.48
2022-12-20T02:30:41.646Z,19.02
2022-12-20T02:33:14.394Z,17.33
2022-12-20T02:35:42.770Z,20.75
2022-12-20T02:38:36.095Z,17.35
2022-12-20T02:41:26.741Z,18.95
2022-12-20T02:44:29.553Z,20.27
2022-12-20T02:47:02.792Z,21.05
2022-12-20T02:49:38.502Z,19.70
2022-12-20T02:52:09.210Z,22.65
2022-12-20T02:54:38.370Z,20.55
2022-12-20T02:57:45.334Z,19.70
2022-12-20T03:00:20.915Z,20.35
2022-12-20T03:03:09.903Z,20.63
2022-12-20T03:05:47.408Z,18.50
2022-12-20T03:08:14.290Z,20.60
2022-12-20T03:10:41.346Z,21.48
2022-12-20T03:13:08.550Z,19.45
2022-12-20T03:15:35.875Z,20.40
2022-12-20T03:18:03.396Z,18.90
2022-12-20T03:20:30.410Z,16.92
2022-12-20T03:22:57.286Z,18.48
2022-12-20T03:25:24.233Z,17.23
2022-12-20T03:27:51.210Z,18.10
2022-12-20T03:30:18.706Z,16.65
2022-12-20T03:32:45.573Z,18.63
2022-12-20T03:35:12.834Z,18.25
2022-12-20T03:37:39.868Z,19.70
2022-12-20T03:40:08.566Z,19.10
2022-12-20T03:42:36.979Z,19.73
2022-12-20T03:45:04.757Z,19.27
2022-12-20T03:47:31.792Z,18.77
2022-12-20T03:49:58.669Z,18.10
2022-12-20T03:52:25.636Z,17.73
2022-12-20T03:54:53.233Z,18.33
2022-12-20T03:57:20.121Z,20.25
2022-12-20T03:59:47.054Z,18.17
2022-12-20T04:02:14.205Z,17.70
2022-12-20T04:04:41.204Z,15.10
2022-12-20T04:07:09.148Z,19.70
2022-12-20T04:09:36.112Z,16.10
2022-12-20T04:12:03.515Z,17.27
2022-12-20T04:14:30.429Z,18.75
2022-12-20T04:16:57.349Z,19.35
2022-12-20T04:19:24.500Z,18.83
2022-12-20T04:21:51.460Z,19.88
2022-12-20T04:24:18.389Z,19.35
2022-12-20T04:26:45.404Z,18.00
2022-12-20T04:29:12.321Z,18.88
2022-12-20T04:31:39.301Z,17.10
2022-12-20T04:34:06.203Z,20.05
2022-12-20T04:36:33.618Z,16.58
2022-12-20T04:39:00.604Z,18.38
2022-12-20T04:41:27.461Z,18.80
2022-12-20T04:43:58.329Z,20.15
2022-12-20T04:46:27.201Z,17.90
2022-12-20T04:48:57.979Z,18.60
2022-12-20T04:51:26.142Z,17.77
2022-12-20T04:53:53.029Z,18.83
2022-12-20T04:56:29.344Z,19.58
2022-12-20T04:58:59.348Z,19.23
2022-12-20T05:01:27.040Z,20.30
2022-12-20T05:03:55.003Z,19.38
2022-12-20T05:06:21.975Z,18.20
2022-12-20T05:08:48.907Z,19.58
2022-12-20T05:11:16.181Z,21.40
2022-12-20T05:13:43.141Z,19.92
2022-12-20T05:16:10.354Z,18.70
2022-12-20T05:18:39.529Z,19.10
2022-12-20T05:21:28.469Z,18.55
2022-12-20T05:24:33.871Z,19.55
2022-12-20T05:27:01.012Z,18.52
2022-12-20T05:29:28.117Z,17.95
2022-12-20T05:31:55.060Z,19.55
2022-12-20T05:34:22.170Z,18.80
2022-12-20T05:36:49.048Z,19.35
2022-12-20T05:39:16.061Z,19.25
2022-12-20T05:41:42.973Z,17.90
2022-12-20T05:44:09.975Z,18.45
2022-12-20T05:46:36.983Z,18.23
2022-12-20T05:49:04.104Z,18.63
2022-12-20T05:51:31.055Z,18.25
2022-12-20T05:53:57.917Z,18.02
2022-12-20T05:56:24.775Z,18.42
2022-12-20T05:58:51.634Z,19.30
2022-12-20T06:01:18.518Z,17.45
2022-12-20T06:03:46.120Z,19.15
2022-12-20T06:06:15.083Z,18.92
2022-12-20T06:08:42.928Z,18.65
2022-12-20T06:11:09.899Z,19.50
2022-12-20T06:13:36.785Z,17.70
2022-12-20T06:16:04.550Z,18.50
2022-12-20T06:18:31.446Z,19.08
2022-12-20T06:20:58.438Z,18.80
2022-12-20T06:23:25.725Z,20.08
2022-12-20T06:25:53.462Z,21.48
2022-12-20T06:28:22.142Z,19.33
2022-12-20T06:30:58.189Z,20.23
2022-12-20T06:33:25.716Z,20.83
2022-12-20T06:35:53.420Z,19.67
2022-12-20T06:38:20.331Z,18.67
2022-12-20T06:40:47.263Z,20.10
2022-12-20T06:43:14.341Z,18.23
2022-12-20T06:45:42.270Z,17.15
2022-12-20T06:48:10.505Z,19.38
2022-12-20T06:50:39.454Z,19.80
2022-12-20T06:53:06.653Z,17.65
2022-12-20T06:55:33.963Z,18.88
2022-12-20T06:58:01.119Z,20.02
2022-12-20T07:00:29.205Z,18.88
2022-12-20T07:02:56.406Z,18.30
2022-12-20T07:05:23.400Z,16.85
2022-12-20T07:07:50.736Z,19.75
2022-12-20T07:10:18.007Z,19.08
2022-12-20T07:12:48.199Z,18.52
2022-12-20T07:15:16.265Z,18.25
2022-12-20T07:17:43.243Z,18.30
2022-12-20T07:20:14.018Z,20.92
2022-12-20T07:22:41.887Z,19.35
2022-12-20T07:25:10.947Z,15.68
2022-12-20T07:27:37.992Z,17.75
2022-12-20T07:30:06.093Z,17.85
2022-12-20T07:32:33.128Z,17.48
2022-12-20T07:35:01.308Z,16.83
2022-12-20T07:37:30.272Z,17.55
2022-12-20T07:39:57.143Z,16.73
2022-12-20T07:42:27.743Z,17.38
2022-12-20T07:45:02.565Z,16.90
2022-12-20T07:47:30.080Z,17.15
2022-12-20T07:49:56.970Z,18.08
2022-12-20T07:52:29.651Z,20.00
2022-12-20T07:55:06.890Z,18.95
2022-12-20T07:57:57.398Z,18.85
2022-12-20T08:00:24.730Z,20.02
2022-12-20T08:03:07.597Z,19.50
2022-12-20T08:05:43.476Z,19.17
2022-12-20T08:08:10.660Z,22.00
2022-12-20T08:10:38.820Z,20.30
2022-12-20T08:13:07.603Z,20.45
2022-12-20T08:15:36.586Z,18.85
2022-12-20T08:18:03.861Z,19.45
2022-12-20T08:20:30.714Z,20.75
2022-12-20T08:22:57.587Z,19.38
2022-12-20T08:25:25.645Z,17.42
2022-12-20T08:27:53.054Z,19.70
2022-12-20T08:30:20.005Z,19.08
2022-12-20T08:32:47.170Z,18.20
2022-12-20T08:35:14.128Z,20.17
2022-12-20T08:37:41.793Z,18.52
2022-12-20T08:40:09.956Z,16.85
2022-12-20T08:42:36.838Z,18.05
2022-12-20T08:45:05.036Z,19.42
2022-12-20T08:47:31.908Z,19.25
2022-12-20T08:49:58.823Z,19.00
2022-12-20T08:52:25.694Z,18.48
2022-12-20T08:54:52.833Z,16.80
2022-12-20T08:57:19.733Z,17.20
2022-12-20T08:59:46.764Z,16.38
2022-12-20T09:03:39.404Z,15.98
2022-12-20T09:06:18.388Z,16.10
2022-12-20T09:08:45.819Z,15.90
2022-12-20T09:11:25.100Z,17.02
2022-12-20T09:13:57.603Z,16.52
2022-12-20T09:16:30.459Z,16.80
2022-12-20T09:19:05.556Z,16.25
2022-12-20T09:21:34.859Z,17.85
2022-12-20T09:24:01.847Z,17.73
2022-12-20T09:26:28.805Z,16.23
2022-12-20T09:28:56.156Z,16.25
2022-12-20T09:31:26.948Z,15.68
2022-12-20T09:33:57.877Z,15.20
2022-12-20T09:36:28.945Z,15.50
2022-12-20T09:38:57.220Z,13.57
2022-12-20T09:41:42.873Z,14.98
2022-12-20T09:44:31.497Z,13.00
2022-12-20T09:47:10.603Z,14.20
2022-12-20T09:49:45.729Z,16.10
2022-12-20T09:53:02.237Z,15.67
2022-12-20T09:56:03.397Z,15.83
2022-12-20T09:58:59.562Z,13.80
2022-12-20T10:01:38.323Z,13.03
2022-12-20T10:04:27.068Z,13.85
2022-12-20T10:07:41.726Z,13.07
2022-12-20T10:10:48.241Z,11.15
2022-12-20T10:14:06.602Z,11.63
2022-12-20T10:16:47.016Z,12.77
2022-12-20T10:19:46.082Z,12.07
2022-12-20T10:22:30.506Z,13.83
2022-12-20T10:25:23.268Z,14.10
2022-12-20T10:27:56.853Z,12.30
2022-12-20T10:30:28.540Z,11.93
2022-12-20T10:32:58.297Z,14.73
2022-12-20T10:35:41.231Z,12.40
2022-12-20T10:38:17.410Z,15.43
2022-12-20T10:41:21.135Z,13.65
2022-12-20T10:44:15.414Z,14.77
2022-12-20T10:46:56.538Z,13.00
2022-12-20T10:49:38.003Z,14.93
2022-12-20T10:52:14.230Z,14.57
2022-12-20T10:54:45.849Z,15.00
2022-12-20T10:57:29.628Z,14.40
2022-12-20T11:00:13.268Z,12.00
2022-12-20T11:02:42.799Z,13.40
2022-12-20T11:05:14.277Z,12.87
2022-12-20T11:08:36.173Z,12.90
2022-12-20T11:11:21.875Z,12.67
2022-12-20T11:13:51.959Z,12.33
2022-12-20T11:16:40.292Z,10.50
2022-12-20T11:19:41.668Z,12.77
2022-12-20T11:22:43.623Z,13.00
2022-12-20T11:25:41.370Z,11.33
2022-12-20T11:29:05.387Z,13.53
2022-12-20T11:32:28.186Z,13.77
2022-12-20T11:35:25.283Z,13.10
2022-12-20T11:38:43.634Z,12.67
2022-12-20T11:41:34.049Z,12.23
2022-12-20T11:45:09.558Z,12.37
2022-12-20T11:48:28.318Z,10.43
2022-12-20T11:51:34.711Z,12.70
2022-12-20T11:54:34.116Z,12.20
2022-12-20T11:57:25.298Z,12.93
2022-12-20T12:00:00.840Z,12.07
2022-12-20T12:02:58.829Z,12.57
2022-12-20T12:05:44.136Z,12.33
2022-12-20T12:08:21.646Z,12.87
2022-12-20T12:11:55.652Z,13.40
2022-12-20T12:14:06.414Z,12.67
2022-12-20T12:16:48.998Z,14.87
2022-12-20T12:19:16.985Z,13.20
2022-12-20T12:22:01.532Z,14.40
2022-12-20T12:24:42.497Z,12.83
2022-12-20T12:27:35.906Z,13.70
2022-12-20T12:30:03.506Z,12.40
2022-12-20T12:32:45.588Z,12.67
2022-12-20T12:36:06.883Z,12.47
2022-12-20T12:39:02.698Z,11.35
2022-12-20T12:42:39.785Z,12.90
2022-12-20T12:45:37.555Z,13.13
2022-12-20T12:48:42.120Z,13.03
2022-12-20T12:51:11.635Z,12.93
2022-12-20T12:53:52.541Z,12.80
2022-12-20T12:56:45.946Z,12.70
2022-12-20T12:59:13.368Z,11.20
2022-12-20T13:02:03.846Z,14.18
2022-12-20T13:04:56.853Z,14.47
2022-12-20T13:07:32.787Z,14.52
2022-12-20T13:10:18.188Z,12.77
2022-12-20T13:12:51.479Z,12.33
2022-12-20T13:15:21.460Z,14.37
2022-12-20T13:18:23.231Z,14.20
2022-12-20T13:21:31.973Z,14.85
2022-12-20T13:24:48.233Z,13.17
2022-12-20T13:27:41.943Z,15.65
2022-12-20T13:30:14.578Z,13.83
2022-12-20T13:32:47.551Z,11.73
2022-12-20T13:35:27.645Z,12.67
2022-12-20T13:38:43.378Z,12.77
2022-12-20T13:41:48.124Z,12.30
2022-12-20T13:44:16.555Z,11.17
2022-12-20T13:47:28.329Z,12.63
2022-12-20T13:49:59.338Z,11.43
2022-12-20T13:52:38.061Z,12.87
2022-12-20T13:55:25.620Z,13.97
2022-12-20T13:57:54.133Z,13.63
2022-12-20T14:00:27.526Z,14.13
2022-12-20T14:02:55.927Z,13.30
2022-12-20T14:05:36.431Z,12.32
2022-12-20T14:08:19.934Z,12.98
2022-12-20T14:10:47.022Z,13.60
2022-12-20T14:13:28.399Z,15.05
2022-12-20T14:15:56.200Z,14.53
2022-12-20T14:18:26.853Z,13.43
2022-12-20T14:21:04.940Z,15.02
2022-12-20T14:23:45.245Z,14.27
2022-12-20T14:26:24.664Z,14.38
2022-12-20T14:28:59.248Z,14.00
2022-12-20T14:31:44.804Z,13.82
2022-12-20T14:34:11.621Z,13.15
2022-12-20T14:36:49.646Z,12.55
2022-12-20T14:39:34.032Z,15.18
2022-12-20T14:42:17.851Z,14.18
2022-12-20T14:44:44.963Z,14.48
2022-12-20T14:47:28.113Z,14.77
2022-12-20T14:50:02.310Z,14.53
2022-12-20T14:52:42.037Z,13.57
2022-12-20T14:55:37.135Z,15.13
2022-12-20T14:58:30.382Z,12.73
2022-12-20T15:01:15.320Z,14.10
2022-12-20T15:03:59.409Z,13.50
2022-12-20T15:06:44.742Z,13.77
2022-12-20T15:09:11.971Z,13.60
2022-12-20T15:11:41.589Z,16.80
2022-12-20T15:14:40.629Z,14.90
2022-12-20T15:17:15.715Z,15.95
2022-12-20T15:19:43.420Z,14.45
2022-12-20T15:22:20.156Z,15.63
2022-12-20T15:24:47.088Z,15.57
2022-12-20T15:27:15.573Z,15.20
2022-12-20T15:29:43.064Z,13.93
2022-12-20T15:32:32.015Z,13.27
2022-12-20T15:34:58.957Z,12.90
2022-12-20T15:37:25.962Z,13.00
2022-12-20T15:39:52.841Z,15.67
2022-12-20T15:42:22.847Z,12.20
2022-12-20T15:44:50.085Z,13.63
2022-12-20T15:47:17.325Z,13.25
2022-12-20T15:49:49.871Z,16.73
2022-12-20T15:52:23.415Z,15.00
2022-12-20T15:54:50.751Z,14.02
2022-12-20T15:57:17.761Z,15.55
2022-12-20T16:00:02.321Z,15.93
2022-12-20T16:02:32.494Z,17.13
2022-12-20T16:05:00.128Z,15.65
2022-12-20T16:07:27.796Z,17.85
2022-12-20T16:09:54.875Z,14.50
2022-12-20T16:12:31.570Z,14.70
2022-12-20T16:14:58.467Z,15.25
2022-12-20T16:17:25.544Z,15.50
2022-12-20T16:19:52.522Z,15.00
2022-12-20T16:22:23.535Z,13.27
2022-12-20T16:24:51.672Z,14.23
2022-12-20T16:27:18.657Z,14.07
2022-12-20T16:29:45.750Z,15.82
2022-12-20T16:32:18.117Z,16.77
2022-12-20T16:34:46.257Z,14.82
2022-12-20T16:37:13.784Z,15.95
2022-12-20T16:39:42.178Z,13.35
2022-12-20T16:42:23.230Z,13.32
2022-12-20T16:44:54.612Z,15.13
2022-12-20T16:47:22.556Z,14.50
2022-12-20T16:49:52.866Z,14.02
2022-12-20T16:52:22.711Z,15.63
2022-12-20T16:54:50.918Z,17.90
2022-12-20T16:57:17.817Z,14.50
2022-12-20T16:59:44.758Z,15.98
2022-12-20T17:02:34.229Z,17.60
2022-12-20T17:05:02.080Z,16.00
2022-12-20T17:07:29.004Z,18.00
2022-12-20T17:10:11.306Z,16.70
2022-12-20T17:12:38.298Z,16.58
2022-12-20T17:15:06.309Z,17.23
2022-12-20T17:17:33.182Z,17.85
2022-12-20T17:20:00.166Z,19.20
2022-12-20T17:22:27.100Z,17.30
2022-12-20T17:24:53.958Z,16.85
2022-12-20T17:27:20.955Z,17.73
2022-12-20T17:29:47.846Z,18.83
2022-12-20T17:32:24.590Z,15.75
2022-12-20T17:34:53.467Z,15.95
2022-12-20T17:37:21.281Z,16.27
2022-12-20T17:39:48.806Z,15.73
2022-12-20T17:42:16.758Z,16.52
2022-12-20T17:44:43.962Z,15.45
2022-12-20T17:47:11.494Z,16.08
2022-12-20T17:49:38.813Z,17.17
2022-12-20T17:52:05.775Z,16.65
2022-12-20T17:54:39.687Z,15.52
2022-12-20T17:57:15.176Z,15.50
2022-12-20T17:59:42.493Z,17.90
2022-12-20T18:02:23.638Z,16.00
2022-12-20T18:04:52.222Z,15.15
2022-12-20T18:07:19.431Z,15.73
2022-12-20T18:09:48.949Z,15.90
2022-12-20T18:12:17.569Z,15.60
2022-12-20T18:14:44.982Z,15.80
2022-12-20T18:17:12.211Z,16.88
2022-12-20T18:19:40.420Z,15.43
2022-12-20T18:22:07.367Z,14.93
2022-12-20T18:24:34.260Z,14.98
2022-12-20T18:27:01.686Z,14.55
2022-12-20T18:29:29.519Z,15.95
2022-12-20T18:31:56.679Z,15.98
2022-12-20T18:34:23.806Z,15.95
2022-12-20T18:36:50.724Z,16.17
2022-12-20T18:39:17.724Z,17.63
2022-12-20T18:41:44.600Z,18.60
2022-12-20T18:44:12.168Z,16.08
2022-12-20T18:46:40.622Z,16.73
2022-12-20T18:49:08.639Z,14.13
2022-12-20T18:51:37.136Z,16.60
2022-12-20T18:54:08.279Z,13.65
2022-12-20T18:56:38.864Z,16.00
2022-12-20T18:59:12.072Z,15.65
2022-12-20T19:01:42.498Z,16.02
2022-12-20T19:04:11.103Z,15.85
2022-12-20T19:06:38.808Z,16.25
2022-12-20T19:09:15.129Z,14.98
2022-12-20T19:11:43.305Z,14.90
2022-12-20T19:14:12.694Z,16.30
2022-12-20T19:16:40.314Z,15.15
2022-12-20T19:19:09.059Z,16.00
2022-12-20T19:21:40.043Z,16.48
2022-12-20T19:24:09.508Z,16.23
2022-12-20T19:26:37.723Z,17.13
2022-12-20T19:29:06.423Z,15.30
2022-12-20T19:31:37.696Z,15.02
2022-12-20T19:34:12.364Z,15.18
2022-12-20T19:36:45.765Z,14.63
2022-12-20T19:39:23.305Z,14.13
2022-12-20T19:44:38.734Z,14.80
2022-12-20T19:47:05.922Z,13.93
2022-12-20T19:49:35.275Z,15.03
2022-12-20T19:52:02.249Z,12.90
2022-12-20T19:54:29.114Z,14.55
2022-12-20T19:56:55.958Z,14.30
2022-12-20T19:59:22.971Z,14.77
2022-12-20T20:01:50.432Z,14.55
2022-12-20T20:04:17.400Z,15.18
2022-12-20T20:06:44.631Z,14.77
2022-12-20T20:09:11.468Z,17.23
2022-12-20T20:11:38.347Z,16.45
2022-12-20T20:14:08.065Z,18.10
2022-12-20T20:16:37.089Z,18.07
2022-12-20T20:19:05.352Z,17.57
2022-12-20T20:21:34.846Z,16.48
2022-12-20T20:24:02.106Z,17.58
2022-12-20T20:26:32.005Z,16.92
2022-12-20T20:29:01.746Z,20.63
2022-12-20T20:31:29.354Z,15.45
2022-12-20T20:33:58.490Z,15.50
2022-12-20T20:36:25.605Z,15.70
2022-12-20T20:38:52.571Z,14.75
2022-12-20T20:41:20.258Z,14.90
2022-12-20T20:43:47.999Z,17.63
2022-12-20T20:46:17.657Z,17.05
2022-12-20T20:48:45.812Z,15.85
2022-12-20T20:51:12.932Z,16.02
2022-12-20T20:53:40.137Z,16.13
2022-12-20T20:56:09.846Z,17.25
2022-12-20T20:58:37.393Z,16.83
2022-12-20T21:01:10.693Z,15.55
2022-12-20T21:03:39.951Z,17.00
2022-12-20T21:08:56.334Z,15.63
2022-12-20T21:11:23.712Z,18.10
2022-12-20T21:13:50.692Z,17.40
2022-12-20T21:16:22.202Z,18.73
2022-12-20T21:18:55.394Z,16.80
2022-12-20T21:21:24.980Z,16.25
2022-12-20T21:23:54.028Z,14.13
2022-12-20T21:26:24.940Z,14.93
2022-12-20T21:29:00.108Z,15.38
2022-12-20T21:31:28.264Z,15.25
2022-12-20T21:33:56.514Z,15.77
2022-12-20T21:36:25.049Z,15.55
2022-12-20T21:38:56.753Z,16.17
2022-12-20T21:41:28.450Z,16.75
2022-12-20T21:43:58.994Z,16.30
2022-12-20T21:46:29.140Z,16.30
2022-12-20T21:48:56.312Z,12.68
2022-12-20T21:51:26.888Z,16.08
2022-12-20T21:54:00.803Z,15.65
2022-12-20T21:56:32.435Z,15.02
2022-12-20T21:59:00.052Z,17.27
2022-12-20T22:01:29.443Z,15.63
2022-12-20T22:04:03.484Z,16.50
2022-12-20T22:06:31.416Z,15.90
2022-12-20T22:09:01.269Z,14.55
2022-12-20T22:11:28.492Z,17.00
2022-12-20T22:13:56.729Z,16.55
2022-12-20T22:16:31.728Z,17.00
2022-12-20T22:19:00.960Z,16.77
2022-12-20T22:21:32.301Z,16.80
2022-12-20T22:24:02.589Z,16.50
2022-12-20T22:26:33.359Z,15.20
2022-12-20T22:29:05.686Z,15.68
2022-12-20T22:31:33.396Z,15.55
2022-12-20T22:34:01.802Z,16.45
2022-12-20T22:36:29.148Z,17.58
2022-12-20T22:38:57.894Z,16.13
2022-12-20T22:41:35.149Z,15.95
2022-12-20T22:44:03.583Z,17.85
2022-12-20T22:46:31.209Z,15.52
2022-12-20T22:49:01.464Z,15.88
2022-12-20T22:51:33.058Z,17.08
2022-12-20T22:54:00.804Z,17.40
2022-12-20T22:56:28.080Z,15.85
2022-12-20T22:58:55.881Z,16.30
2022-12-20T23:01:23.167Z,16.35
2022-12-20T23:03:50.497Z,15.13
2022-12-20T23:06:21.249Z,16.60
2022-12-20T23:08:49.310Z,17.00
2022-12-20T23:11:45.134Z,16.20
2022-12-20T23:14:38.682Z,16.45
2022-12-20T23:17:10.027Z,16.23
2022-12-20T23:19:55.805Z,14.85
2022-12-20T23:22:43.104Z,14.20
2022-12-20T23:25:21.081Z,15.57
2022-12-20T23:27:50.135Z,18.20
2022-12-20T23:30:22.965Z,15.95
2022-12-20T23:32:50.211Z,16.25
2022-12-20T23:35:21.089Z,14.50
2022-12-20T23:37:48.698Z,15.77
2022-12-20T23:40:16.661Z,15.75
2022-12-20T23:42:44.688Z,16.70
2022-12-20T23:45:12.157Z,15.95
2022-12-20T23:47:39.138Z,14.88
2022-12-20T23:50:07.161Z,15.73
2022-12-20T23:52:34.029Z,15.90
2022-12-20T23:55:00.956Z,16.73
2022-12-20T23:57:31.050Z,15.50
2022-12-20T23:59:57.909Z,16.53
